Item Display Status Humidity-temperature Sensor

Elevation Above Sea Level: 3 m

 

Deployed Sensor

  • Serial Number: 20370375
  • NDBC Property Number: 43940
  • Start Date: 6/29/2021 (10:16:09 Z)
  • End Date: Currently Active
Relative Humidity [%]     6 entries per hour
Showing data from 12/1/2022 (16:00:00 Z) to 11/30/2022 (00:00:01 Z)
Previous Next [ Day | 3-Days | 7-Days ]
First Last
Prev [ Day | 3-Days | 7-Days ] Next
First Last

Start Time:     :
End Time:     :     
Time (in GMT) :00 :50 :40 :30 :20 :10
Previous Next [ Day | 3-Days | 7-Days ]
First Last
Prev [ Day | 3-Days | 7-Days ] Next
First Last


123 => good data
MM => data is determined as missing
-- => data not received/configured
Back to Top Back to Top
12/1/2022 16:00 to 15:10 86.67 86.27 86.21 85.60 83.70 84.11
12/1/2022 15:00 to 14:10 83.93 83.16 81.68 81.97 83.85 83.28
12/1/2022 14:00 to 13:10 87.02 87.04 86.35 85.00 86.75 86.69
12/1/2022 13:00 to 12:10 85.74 86.37 87.10 87.60 86.94 87.97
12/1/2022 12:00 to 11:10 87.95 89.82 90.13 89.32 89.56 89.54
12/1/2022 11:00 to 10:10 88.85 89.80 89.50 90.25 90.15 90.39
12/1/2022 10:00 to 9:10 89.48 88.96 87.56 87.60 88.03 88.05
12/1/2022 09:00 to 8:10 90.13 90.21 90.55 89.94 89.82 89.96
12/1/2022 08:00 to 7:10 89.32 88.65 88.85 89.44 90.35 89.90
12/1/2022 07:00 to 6:10 89.90 89.50 88.96 87.99 88.11 88.27
12/1/2022 06:00 to 5:10 88.15 87.78 87.80 86.83 85.38 84.55
12/1/2022 05:00 to 4:10 86.31 86.98 87.62 89.32 89.80 90.39
12/1/2022 04:00 to 3:10 89.82 89.72 88.93 88.85 88.53 88.93
12/1/2022 03:00 to 2:10 87.68 88.23 87.56 86.85 86.57 86.98
12/1/2022 02:00 to 1:10 87.02 87.86 87.06 85.82 86.19 87.28
12/1/2022 01:00 to 0:10 87.38 86.41 86.81 85.70 86.94 85.64
12/1/2022 00:00 to 23:10 87.34 87.78 86.71 86.33 88.96 88.47
11/30/2022 23:00 to 22:10 88.98 88.01 87.82 87.60 88.07 88.33
11/30/2022 22:00 to 21:10 88.73 87.88 88.25 88.55 89.10 88.53
11/30/2022 21:00 to 20:10 88.39 86.94 87.20 87.22 87.24 87.28
11/30/2022 20:00 to 19:10 87.26 87.54 87.82 86.71 86.89 86.29
11/30/2022 19:00 to 18:10 86.69 87.58 87.82 88.27 90.91 91.60
11/30/2022 18:00 to 17:10 91.64 91.66 92.25 93.10 93.01 92.87
11/30/2022 17:00 to 16:10 92.73 92.51 92.81 92.99 92.91 92.61
11/30/2022 16:00 to 15:10 92.91 93.62 94.53 96.25 95.36 95.26
11/30/2022 15:00 to 14:10 94.81 94.89 95.20 94.31 94.67 95.10
11/30/2022 14:00 to 13:10 96.33 96.21 96.08 96.47 96.61 96.75
11/30/2022 13:00 to 12:10 96.71 96.55 96.27 96.06 96.29 96.59
11/30/2022 12:00 to 11:10 96.71 96.79 96.87 96.95 96.89 96.99
11/30/2022 11:00 to 10:10 96.97 96.75 96.65 96.41 96.25 95.76
11/30/2022 10:00 to 9:10 95.12 95.18 95.14 95.14 95.01 94.87
11/30/2022 09:00 to 8:10 94.79 94.91 95.28 95.38 95.18 95.07
11/30/2022 08:00 to 7:10 95.42 96.23 96.79 96.81 96.53 96.41
11/30/2022 07:00 to 6:10 96.37 96.19 95.90 95.60 95.18 94.81
11/30/2022 06:00 to 5:10 94.57 94.41 94.35 94.43 94.71 95.20
11/30/2022 05:00 to 4:10 95.22 95.18 94.87 94.69 94.57 94.55
11/30/2022 04:00 to 3:10 94.23 93.78 93.52 93.34 93.16 92.81
11/30/2022 03:00 to 2:10 92.51 92.47 91.30 90.63 90.29 90.07
11/30/2022 02:00 to 1:10 91.12 93.16 92.99 92.43 91.86 92.09
11/30/2022 01:00 to 0:10 91.80 90.91 89.84 89.26 88.85 89.26

 

 

 

Air Temperature [°C]     6 entries per hour
Showing data from 12/1/2022 (16:00:00 Z) to 11/30/2022 (00:00:01 Z)
Previous Next [ Day | 3-Days | 7-Days ]
First Last
Prev [ Day | 3-Days | 7-Days ] Next
First Last

Start Time:     :
End Time:     :     
Time (in GMT) :00 :50 :40 :30 :20 :10
Previous Next [ Day | 3-Days | 7-Days ]
First Last
Prev [ Day | 3-Days | 7-Days ] Next
First Last


123 => good data
MM => data is determined as missing
-- => data not received/configured
Back to Top Back to Top
12/1/2022 16:00 to 15:10 21.89 21.91 21.97 22.07 21.97 22.01
12/1/2022 15:00 to 14:10 21.99 22.04 22.01 21.90 21.88 21.88
12/1/2022 14:00 to 13:10 21.59 21.71 21.72 21.64 21.48 21.54
12/1/2022 13:00 to 12:10 21.51 21.48 21.45 21.48 21.47 21.52
12/1/2022 12:00 to 11:10 21.58 21.61 21.50 21.39 21.32 21.38
12/1/2022 11:00 to 10:10 21.28 21.41 21.41 21.43 21.38 21.30
12/1/2022 10:00 to 9:10 21.37 21.40 21.40 21.49 21.44 21.40
12/1/2022 09:00 to 8:10 21.39 21.44 21.42 21.44 21.45 21.48
12/1/2022 08:00 to 7:10 21.68 21.73 21.63 21.47 21.61 21.54
12/1/2022 07:00 to 6:10 21.63 21.70 21.71 21.65 21.76 21.75
12/1/2022 06:00 to 5:10 21.64 21.62 21.74 21.77 21.81 21.76
12/1/2022 05:00 to 4:10 21.84 21.74 21.74 21.82 21.80 21.82
12/1/2022 04:00 to 3:10 21.79 21.86 21.78 21.83 21.78 21.86
12/1/2022 03:00 to 2:10 21.85 21.89 21.92 21.95 21.99 21.89
12/1/2022 02:00 to 1:10 21.93 21.84 21.94 21.94 21.81 21.95
12/1/2022 01:00 to 0:10 21.89 22.00 22.06 21.93 21.93 21.94
12/1/2022 00:00 to 23:10 21.84 22.05 22.08 21.94 21.90 22.00
11/30/2022 23:00 to 22:10 21.97 22.07 21.95 21.93 21.96 21.81
11/30/2022 22:00 to 21:10 21.75 21.79 21.78 21.82 21.80 21.82
11/30/2022 21:00 to 20:10 21.93 21.90 22.03 22.17 22.03 21.86
11/30/2022 20:00 to 19:10 21.93 21.93 21.94 21.91 21.84 21.91
11/30/2022 19:00 to 18:10 21.86 21.86 21.78 21.87 21.83 21.75
11/30/2022 18:00 to 17:10 21.87 21.80 21.84 21.77 21.71 21.74
11/30/2022 17:00 to 16:10 21.71 21.65 21.68 21.63 21.74 21.66
11/30/2022 16:00 to 15:10 21.39 21.01 20.75 21.07 21.39 21.45
11/30/2022 15:00 to 14:10 21.63 21.53 21.54 21.72 21.74 21.70
11/30/2022 14:00 to 13:10 21.34 21.42 21.47 21.44 21.44 21.34
11/30/2022 13:00 to 12:10 21.27 21.32 21.35 21.21 21.18 21.22
11/30/2022 12:00 to 11:10 21.18 21.15 21.10 21.13 21.10 21.13
11/30/2022 11:00 to 10:10 21.10 21.11 21.16 21.13 21.22 21.33
11/30/2022 10:00 to 9:10 21.31 21.31 21.31 21.29 21.30 21.35
11/30/2022 09:00 to 8:10 21.31 21.35 21.37 21.33 21.40 21.40
11/30/2022 08:00 to 7:10 21.33 21.31 21.32 21.35 21.37 21.41
11/30/2022 07:00 to 6:10 21.41 21.40 21.42 21.46 21.47 21.55
11/30/2022 06:00 to 5:10 21.54 21.56 21.46 21.45 21.43 21.43
11/30/2022 05:00 to 4:10 21.48 21.54 21.53 21.48 21.49 21.54
11/30/2022 04:00 to 3:10 21.51 21.56 21.54 21.56 21.56 21.65
11/30/2022 03:00 to 2:10 21.60 21.67 21.69 21.62 21.70 21.62
11/30/2022 02:00 to 1:10 21.55 21.75 21.74 21.79 21.68 21.66
11/30/2022 01:00 to 0:10 21.72 21.75 21.74 21.77 21.69 21.67